sensor_id;sensor_type;location;lat;lon;timestamp;pressure;altitude;pressure_sealevel;temperature;humidity
39181;BME280;24906;48.262;14.264;2022-07-06T00:00:13;98732.56;;;19.68;100.00
39181;BME280;24906;48.262;14.264;2022-07-06T00:03:07;98727.41;;;19.66;100.00
39181;BME280;24906;48.262;14.264;2022-07-06T00:05:54;98717.41;;;19.47;100.00
39181;BME280;24906;48.262;14.264;2022-07-06T00:08:48;98731.09;;;19.45;100.00
39181;BME280;24906;48.262;14.264;2022-07-06T00:11:35;98734.19;;;19.62;100.00
39181;BME280;24906;48.262;14.264;2022-07-06T00:14:29;98719.69;;;19.30;100.00
39181;BME280;24906;48.262;14.264;2022-07-06T00:17:16;98733.72;;;19.25;100.00
39181;BME280;24906;48.262;14.264;2022-07-06T00:20:10;98740.81;;;19.46;100.00
39181;BME280;24906;48.262;14.264;2022-07-06T00:23:03;98740.38;;;19.36;100.00
39181;BME280;24906;48.262;14.264;2022-07-06T00:25:57;98744.53;;;19.32;100.00
39181;BME280;24906;48.262;14.264;2022-07-06T00:28:44;98743.47;;;19.33;100.00
39181;BME280;24906;48.262;14.264;2022-07-06T00:31:38;98741.00;;;19.38;100.00
39181;BME280;24906;48.262;14.264;2022-07-06T00:34:25;98732.75;;;19.40;100.00
39181;BME280;24906;48.262;14.264;2022-07-06T00:37:19;98737.06;;;19.34;100.00
39181;BME280;24906;48.262;14.264;2022-07-06T00:40:07;98735.41;;;19.26;100.00
39181;BME280;24906;48.262;14.264;2022-07-06T00:43:00;98737.69;;;19.36;100.00
39181;BME280;24906;48.262;14.264;2022-07-06T00:45:54;98743.28;;;19.34;100.00
39181;BME280;24906;48.262;14.264;2022-07-06T00:48:54;98733.34;;;19.28;100.00
39181;BME280;24906;48.262;14.264;2022-07-06T00:51:42;98735.78;;;19.16;100.00
39181;BME280;24906;48.262;14.264;2022-07-06T00:54:36;98738.28;;;19.31;100.00
39181;BME280;24906;48.262;14.264;2022-07-06T00:57:29;98734.78;;;19.31;100.00
39181;BME280;24906;48.262;14.264;2022-07-06T01:00:17;98725.84;;;19.17;100.00
39181;BME280;24906;48.262;14.264;2022-07-06T01:03:11;98729.75;;;19.08;100.00
39181;BME280;24906;48.262;14.264;2022-07-06T01:06:05;98734.94;;;19.09;100.00
39181;BME280;24906;48.262;14.264;2022-07-06T01:08:52;98736.56;;;19.04;100.00
39181;BME280;24906;48.262;14.264;2022-07-06T01:11:46;98735.50;;;19.05;100.00
39181;BME280;24906;48.262;14.264;2022-07-06T01:14:35;98743.16;;;19.01;100.00
39181;BME280;24906;48.262;14.264;2022-07-06T01:17:29;98737.56;;;19.03;100.00
39181;BME280;24906;48.262;14.264;2022-07-06T01:20:25;98743.81;;;19.03;100.00
39181;BME280;24906;48.262;14.264;2022-07-06T01:23:12;98737.38;;;19.04;100.00
39181;BME280;24906;48.262;14.264;2022-07-06T01:26:05;98728.69;;;19.02;100.00
39181;BME280;24906;48.262;14.264;2022-07-06T01:28:59;98741.91;;;18.97;100.00
39181;BME280;24906;48.262;14.264;2022-07-06T01:31:53;98747.28;;;18.90;100.00
39181;BME280;24906;48.262;14.264;2022-07-06T01:34:41;98742.91;;;18.89;100.00
39181;BME280;24906;48.262;14.264;2022-07-06T01:37:34;98747.84;;;18.86;100.00
39181;BME280;24906;48.262;14.264;2022-07-06T01:40:22;98750.97;;;18.83;100.00
39181;BME280;24906;48.262;14.264;2022-07-06T01:43:15;98746.41;;;18.83;100.00
39181;BME280;24906;48.262;14.264;2022-07-06T01:46:09;98756.78;;;18.86;100.00
39181;BME280;24906;48.262;14.264;2022-07-06T01:49:04;98742.88;;;18.83;100.00
39181;BME280;24906;48.262;14.264;2022-07-06T01:52:03;98748.28;;;18.83;100.00
39181;BME280;24906;48.262;14.264;2022-07-06T01:54:57;98754.00;;;18.79;100.00
39181;BME280;24906;48.262;14.264;2022-07-06T01:57:44;98747.63;;;18.81;100.00
39181;BME280;24906;48.262;14.264;2022-07-06T02:00:38;98756.69;;;18.79;100.00
39181;BME280;24906;48.262;14.264;2022-07-06T02:03:25;98744.69;;;18.75;100.00
39181;BME280;24906;48.262;14.264;2022-07-06T02:06:18;98746.34;;;18.76;100.00
39181;BME280;24906;48.262;14.264;2022-07-06T02:09:05;98742.38;;;18.72;100.00
39181;BME280;24906;48.262;14.264;2022-07-06T02:11:59;98743.41;;;18.71;100.00
39181;BME280;24906;48.262;14.264;2022-07-06T02:14:46;98751.88;;;18.68;100.00
39181;BME280;24906;48.262;14.264;2022-07-06T02:17:41;98751.50;;;18.71;100.00
39181;BME280;24906;48.262;14.264;2022-07-06T02:20:34;98749.59;;;18.65;100.00
39181;BME280;24906;48.262;14.264;2022-07-06T02:23:21;98744.16;;;18.58;100.00
39181;BME280;24906;48.262;14.264;2022-07-06T02:26:15;98756.16;;;18.56;100.00
39181;BME280;24906;48.262;14.264;2022-07-06T02:29:02;98752.03;;;18.53;100.00
39181;BME280;24906;48.262;14.264;2022-07-06T02:31:56;98750.34;;;18.52;100.00
39181;BME280;24906;48.262;14.264;2022-07-06T02:34:43;98754.28;;;18.50;100.00
39181;BME280;24906;48.262;14.264;2022-07-06T02:37:37;98759.22;;;18.46;100.00
39181;BME280;24906;48.262;14.264;2022-07-06T02:40:26;98754.22;;;18.43;100.00
39181;BME280;24906;48.262;14.264;2022-07-06T02:43:20;98758.13;;;18.41;100.00
39181;BME280;24906;48.262;14.264;2022-07-06T02:46:14;98758.31;;;18.39;100.00
39181;BME280;24906;48.262;14.264;2022-07-06T02:49:01;98765.50;;;18.32;100.00
39181;BME280;24906;48.262;14.264;2022-07-06T02:52:07;98762.81;;;18.32;100.00
39181;BME280;24906;48.262;14.264;2022-07-06T02:55:01;98757.25;;;18.33;100.00
39181;BME280;24906;48.262;14.264;2022-07-06T02:57:55;98766.13;;;18.34;100.00
39181;BME280;24906;48.262;14.264;2022-07-06T03:00:49;98763.88;;;18.31;100.00
39181;BME280;24906;48.262;14.264;2022-07-06T03:03:36;98761.38;;;18.29;100.00
39181;BME280;24906;48.262;14.264;2022-07-06T03:06:30;98763.88;;;18.31;100.00
39181;BME280;24906;48.262;14.264;2022-07-06T03:09:17;98756.38;;;18.26;100.00
39181;BME280;24906;48.262;14.264;2022-07-06T03:12:11;98762.53;;;18.20;100.00
39181;BME280;24906;48.262;14.264;2022-07-06T03:14:58;98756.97;;;18.22;100.00
39181;BME280;24906;48.262;14.264;2022-07-06T03:17:52;98755.50;;;18.19;100.00
39181;BME280;24906;48.262;14.264;2022-07-06T03:20:46;98752.31;;;18.09;100.00
39181;BME280;24906;48.262;14.264;2022-07-06T03:23:33;98754.19;;;18.08;100.00
39181;BME280;24906;48.262;14.264;2022-07-06T03:26:27;98755.00;;;18.09;100.00
39181;BME280;24906;48.262;14.264;2022-07-06T03:29:14;98765.13;;;18.07;100.00
39181;BME280;24906;48.262;14.264;2022-07-06T03:32:08;98770.50;;;18.07;100.00
39181;BME280;24906;48.262;14.264;2022-07-06T03:34:55;98766.38;;;18.11;100.00
39181;BME280;24906;48.262;14.264;2022-07-06T03:37:49;98763.84;;;18.03;100.00
39181;BME280;24906;48.262;14.264;2022-07-06T03:40:36;98770.00;;;17.96;100.00
39181;BME280;24906;48.262;14.264;2022-07-06T03:43:29;98769.81;;;17.98;100.00
39181;BME280;24906;48.262;14.264;2022-07-06T03:46:17;98762.78;;;17.97;100.00
39181;BME280;24906;48.262;14.264;2022-07-06T03:49:10;98765.63;;;17.95;100.00
39181;BME280;24906;48.262;14.264;2022-07-06T03:52:17;98761.53;;;17.99;100.00
39181;BME280;24906;48.262;14.264;2022-07-06T03:55:09;98771.09;;;18.02;100.00
39181;BME280;24906;48.262;14.264;2022-07-06T03:58:03;98768.97;;;17.97;100.00
39181;BME280;24906;48.262;14.264;2022-07-06T04:00:52;98774.00;;;18.07;100.00
39181;BME280;24906;48.262;14.264;2022-07-06T04:03:46;98770.22;;;18.02;100.00
39181;BME280;24906;48.262;14.264;2022-07-06T04:06:33;98776.84;;;17.99;100.00
39181;BME280;24906;48.262;14.264;2022-07-06T04:09:27;98765.72;;;18.02;100.00
39181;BME280;24906;48.262;14.264;2022-07-06T04:12:14;98773.56;;;18.04;100.00
39181;BME280;24906;48.262;14.264;2022-07-06T04:15:09;98775.22;;;18.05;100.00
39181;BME280;24906;48.262;14.264;2022-07-06T04:18:03;98774.41;;;18.04;100.00
39181;BME280;24906;48.262;14.264;2022-07-06T04:20:57;98780.22;;;18.08;100.00
39181;BME280;24906;48.262;14.264;2022-07-06T04:23:45;98783.91;;;18.07;100.00
39181;BME280;24906;48.262;14.264;2022-07-06T04:26:38;98784.09;;;18.05;100.00
39181;BME280;24906;48.262;14.264;2022-07-06T04:29:32;98782.66;;;18.03;100.00
39181;BME280;24906;48.262;14.264;2022-07-06T04:32:19;98775.47;;;18.10;100.00
39181;BME280;24906;48.262;14.264;2022-07-06T04:35:13;98774.25;;;18.12;100.00
39181;BME280;24906;48.262;14.264;2022-07-06T04:38:06;98779.44;;;18.14;100.00
39181;BME280;24906;48.262;14.264;2022-07-06T04:41:00;98780.06;;;18.16;100.00
39181;BME280;24906;48.262;14.264;2022-07-06T04:43:54;98777.00;;;18.19;100.00
39181;BME280;24906;48.262;14.264;2022-07-06T04:46:41;98777.22;;;18.24;100.00
39181;BME280;24906;48.262;14.264;2022-07-06T04:49:34;98780.97;;;18.23;100.00
39181;BME280;24906;48.262;14.264;2022-07-06T04:52:34;98780.44;;;18.34;100.00
39181;BME280;24906;48.262;14.264;2022-07-06T04:55:29;98781.19;;;18.28;100.00
39181;BME280;24906;48.262;14.264;2022-07-06T04:58:16;98777.00;;;18.19;100.00
39181;BME280;24906;48.262;14.264;2022-07-06T05:01:11;98777.00;;;18.19;100.00
39181;BME280;24906;48.262;14.264;2022-07-06T05:04:04;98780.56;;;18.26;100.00
39181;BME280;24906;48.262;14.264;2022-07-06T05:06:51;98786.06;;;18.18;100.00
39181;BME280;24906;48.262;14.264;2022-07-06T05:09:44;98788.59;;;18.48;100.00
39181;BME280;24906;48.262;14.264;2022-07-06T05:12:38;98790.22;;;18.49;100.00
39181;BME280;24906;48.262;14.264;2022-07-06T05:15:25;98784.03;;;18.48;100.00
39181;BME280;24906;48.262;14.264;2022-07-06T05:18:19;98785.53;;;18.29;100.00
39181;BME280;24906;48.262;14.264;2022-07-06T05:21:14;98788.41;;;18.28;100.00
39181;BME280;24906;48.262;14.264;2022-07-06T05:24:08;98786.56;;;18.28;100.00
39181;BME280;24906;48.262;14.264;2022-07-06T05:26:55;98798.81;;;18.37;100.00
39181;BME280;24906;48.262;14.264;2022-07-06T05:29:49;98789.47;;;18.27;100.00
39181;BME280;24906;48.262;14.264;2022-07-06T05:32:36;98786.56;;;18.28;100.00
39181;BME280;24906;48.262;14.264;2022-07-06T05:35:29;98797.56;;;18.33;100.00
39181;BME280;24906;48.262;14.264;2022-07-06T05:38:37;98797.56;;;18.33;100.00
39181;BME280;24906;48.262;14.264;2022-07-06T05:41:24;98808.47;;;18.25;100.00
39181;BME280;24906;48.262;14.264;2022-07-06T05:44:18;98814.66;;;18.26;100.00
39181;BME280;24906;48.262;14.264;2022-07-06T05:47:05;98817.94;;;18.21;100.00
39181;BME280;24906;48.262;14.264;2022-07-06T05:50:17;98823.31;;;18.21;100.00
39181;BME280;24906;48.262;14.264;2022-07-06T05:53:11;98821.13;;;18.31;100.00
39181;BME280;24906;48.262;14.264;2022-07-06T05:56:06;98828.00;;;18.41;100.00
39181;BME280;24906;48.262;14.264;2022-07-06T05:58:53;98823.53;;;18.48;100.00
39181;BME280;24906;48.262;14.264;2022-07-06T06:01:46;98816.22;;;18.42;100.00
39181;BME280;24906;48.262;14.264;2022-07-06T06:04:33;98824.16;;;18.50;100.00
39181;BME280;24906;48.262;14.264;2022-07-06T06:07:27;98822.94;;;18.59;100.00
39181;BME280;24906;48.262;14.264;2022-07-06T06:10:14;98822.81;;;18.67;100.00
39181;BME280;24906;48.262;14.264;2022-07-06T06:13:08;98830.72;;;18.75;100.00
39181;BME280;24906;48.262;14.264;2022-07-06T06:15:55;98820.69;;;18.56;100.00
39181;BME280;24906;48.262;14.264;2022-07-06T06:18:49;98824.09;;;18.71;100.00
39181;BME280;24906;48.262;14.264;2022-07-06T06:21:46;98827.03;;;18.76;100.00
39181;BME280;24906;48.262;14.264;2022-07-06T06:24:33;98827.16;;;18.68;100.00
39181;BME280;24906;48.262;14.264;2022-07-06T06:27:27;98837.44;;;18.86;100.00
39181;BME280;24906;48.262;14.264;2022-07-06T06:30:21;98829.41;;;18.93;100.00
39181;BME280;24906;48.262;14.264;2022-07-06T06:33:18;98833.75;;;18.94;100.00
39181;BME280;24906;48.262;14.264;2022-07-06T06:36:05;98831.28;;;18.92;100.00
39181;BME280;24906;48.262;14.264;2022-07-06T06:38:59;98829.28;;;19.08;100.00
39181;BME280;24906;48.262;14.264;2022-07-06T06:41:53;98838.34;;;19.00;100.00
39181;BME280;24906;48.262;14.264;2022-07-06T06:44:40;98838.72;;;18.97;100.00
39181;BME280;24906;48.262;14.264;2022-07-06T06:47:34;98847.59;;;18.91;99.77
39181;BME280;24906;48.262;14.264;2022-07-06T06:50:27;98846.59;;;18.92;100.00
39181;BME280;24906;48.262;14.264;2022-07-06T06:53:21;98843.53;;;19.02;100.00
39181;BME280;24906;48.262;14.264;2022-07-06T06:56:14;98839.44;;;19.12;100.00
39181;BME280;24906;48.262;14.264;2022-07-06T06:59:01;98835.03;;;19.05;99.19
39181;BME280;24906;48.262;14.264;2022-07-06T07:02:04;98839.28;;;19.21;99.82
39181;BME280;24906;48.262;14.264;2022-07-06T07:04:51;98835.09;;;19.11;99.95
39181;BME280;24906;48.262;14.264;2022-07-06T07:07:45;98841.72;;;19.09;100.00
39181;BME280;24906;48.262;14.264;2022-07-06T07:10:39;98840.72;;;19.16;100.00
39181;BME280;24906;48.262;14.264;2022-07-06T07:13:26;98838.47;;;19.27;100.00
39181;BME280;24906;48.262;14.264;2022-07-06T07:16:20;98844.72;;;19.34;100.00
39181;BME280;24906;48.262;14.264;2022-07-06T07:19:14;98839.78;;;19.38;100.00
39181;BME280;24906;48.262;14.264;2022-07-06T07:22:08;98842.28;;;19.46;100.00
39181;BME280;24906;48.262;14.264;2022-07-06T07:24:55;98841.06;;;19.55;89.38
39181;BME280;24906;48.262;14.264;2022-07-06T07:27:48;98836.34;;;19.70;82.65
39181;BME280;24906;48.262;14.264;2022-07-06T07:30:35;98843.00;;;19.74;82.85
39181;BME280;24906;48.262;14.264;2022-07-06T07:33:30;98852.38;;;19.85;81.24
39181;BME280;24906;48.262;14.264;2022-07-06T07:36:25;98841.78;;;19.90;83.63
39181;BME280;24906;48.262;14.264;2022-07-06T07:39:18;98839.97;;;20.11;80.36
39181;BME280;24906;48.262;14.264;2022-07-06T07:42:05;98840.38;;;20.21;79.24
39181;BME280;24906;48.262;14.264;2022-07-06T07:45:04;98840.59;;;20.26;77.39
39181;BME280;24906;48.262;14.264;2022-07-06T07:47:51;98849.91;;;20.44;73.54
39181;BME280;24906;48.262;14.264;2022-07-06T07:50:45;98843.50;;;20.45;74.80
39181;BME280;24906;48.262;14.264;2022-07-06T07:53:38;98845.59;;;20.43;70.26
39181;BME280;24906;48.262;14.264;2022-07-06T07:56:32;98845.78;;;20.41;71.43
39181;BME280;24906;48.262;14.264;2022-07-06T07:59:25;98850.34;;;20.41;71.57
39181;BME280;24906;48.262;14.264;2022-07-06T08:02:12;98839.75;;;20.32;73.78
39181;BME280;24906;48.262;14.264;2022-07-06T08:05:06;98839.97;;;20.51;76.29
39181;BME280;24906;48.262;14.264;2022-07-06T08:07:53;98841.22;;;20.28;75.88
39181;BME280;24906;48.262;14.264;2022-07-06T08:10:47;98846.19;;;20.45;76.86
39181;BME280;24906;48.262;14.264;2022-07-06T08:13:54;98837.69;;;20.48;78.00
39181;BME280;24906;48.262;14.264;2022-07-06T08:16:48;98835.19;;;20.53;76.64
39181;BME280;24906;48.262;14.264;2022-07-06T08:19:35;98842.47;;;20.66;77.37
39181;BME280;24906;48.262;14.264;2022-07-06T08:22:29;98843.69;;;20.83;78.61
39181;BME280;24906;48.262;14.264;2022-07-06T08:25:16;98837.47;;;20.83;72.46
39181;BME280;24906;48.262;14.264;2022-07-06T08:28:10;98851.34;;;20.86;72.61
39181;BME280;24906;48.262;14.264;2022-07-06T08:30:57;98843.66;;;20.90;71.93
39181;BME280;24906;48.262;14.264;2022-07-06T08:33:52;98846.16;;;20.98;69.36
39181;BME280;24906;48.262;14.264;2022-07-06T08:36:40;98847.19;;;20.97;66.99
39181;BME280;24906;48.262;14.264;2022-07-06T08:39:33;98845.25;;;21.18;66.68
39181;BME280;24906;48.262;14.264;2022-07-06T08:42:32;98846.50;;;21.15;62.43
39181;BME280;24906;48.262;14.264;2022-07-06T08:45:26;98847.91;;;21.31;65.01
39181;BME280;24906;48.262;14.264;2022-07-06T08:48:23;98842.47;;;21.38;60.74
39181;BME280;24906;48.262;14.264;2022-07-06T08:51:24;98842.22;;;21.59;61.80
39181;BME280;24906;48.262;14.264;2022-07-06T08:54:17;98831.41;;;21.59;60.88
39181;BME280;24906;48.262;14.264;2022-07-06T08:57:11;98843.72;;;21.87;61.71
39181;BME280;24906;48.262;14.264;2022-07-06T09:00:10;98847.09;;;21.76;61.29
39181;BME280;24906;48.262;14.264;2022-07-06T09:02:57;98846.69;;;21.72;60.38
39181;BME280;24906;48.262;14.264;2022-07-06T09:05:52;98846.63;;;21.85;60.97
39181;BME280;24906;48.262;14.264;2022-07-06T09:08:49;98832.91;;;21.87;59.85
39181;BME280;24906;48.262;14.264;2022-07-06T09:11:39;98838.69;;;21.90;60.49
39181;BME280;24906;48.262;14.264;2022-07-06T09:14:33;98841.75;;;22.01;60.76
39181;BME280;24906;48.262;14.264;2022-07-06T09:17:28;98847.38;;;21.99;60.30
39181;BME280;24906;48.262;14.264;2022-07-06T09:20:15;98842.41;;;21.96;62.22
39181;BME280;24906;48.262;14.264;2022-07-06T09:23:08;98838.44;;;21.99;62.51
39181;BME280;24906;48.262;14.264;2022-07-06T09:26:10;98839.91;;;21.95;61.94
39181;BME280;24906;48.262;14.264;2022-07-06T09:29:04;98841.75;;;22.01;60.91
39181;BME280;24906;48.262;14.264;2022-07-06T09:32:01;98833.22;;;21.97;62.25
39181;BME280;24906;48.262;14.264;2022-07-06T09:34:55;98842.09;;;22.11;62.80
39181;BME280;24906;48.262;14.264;2022-07-06T09:40:59;98851.59;;;22.20;61.35
39181;BME280;24906;48.262;14.264;2022-07-06T09:43:57;98837.31;;;22.13;61.50
39181;BME280;24906;48.262;14.264;2022-07-06T09:46:46;98842.44;;;22.21;60.60
39181;BME280;24906;48.262;14.264;2022-07-06T09:49:40;98837.22;;;22.26;60.93
39181;BME280;24906;48.262;14.264;2022-07-06T09:52:37;98835.84;;;22.42;64.59
39181;BME280;24906;48.262;14.264;2022-07-06T09:55:31;98824.59;;;22.45;61.29
39181;BME280;24906;48.262;14.264;2022-07-06T09:58:20;98830.75;;;22.53;60.84
39181;BME280;24906;48.262;14.264;2022-07-06T10:01:33;98835.09;;;22.79;56.01
39181;BME280;24906;48.262;14.264;2022-07-06T10:04:28;98832.06;;;22.68;56.95
39181;BME280;24906;48.262;14.264;2022-07-06T10:07:16;98823.44;;;22.78;54.48
39181;BME280;24906;48.262;14.264;2022-07-06T10:10:10;98831.38;;;22.73;57.28
39181;BME280;24906;48.262;14.264;2022-07-06T10:13:04;98822.63;;;22.78;57.05
39181;BME280;24906;48.262;14.264;2022-07-06T10:16:02;98820.38;;;22.93;57.11
39181;BME280;24906;48.262;14.264;2022-07-06T10:18:57;98841.91;;;23.06;57.04
39181;BME280;24906;48.262;14.264;2022-07-06T10:21:45;98821.06;;;23.07;56.50
39181;BME280;24906;48.262;14.264;2022-07-06T10:24:40;98835.59;;;23.13;55.84
39181;BME280;24906;48.262;14.264;2022-07-06T10:27:36;98824.91;;;23.18;54.33
39181;BME280;24906;48.262;14.264;2022-07-06T10:30:31;98822.94;;;23.25;54.95
39181;BME280;24906;48.262;14.264;2022-07-06T10:33:26;98817.22;;;23.33;54.03
39181;BME280;24906;48.262;14.264;2022-07-06T10:36:20;98821.88;;;23.44;54.60
39181;BME280;24906;48.262;14.264;2022-07-06T10:39:08;98821.88;;;23.44;52.25
39181;BME280;24906;48.262;14.264;2022-07-06T10:48:41;98810.88;;;23.58;54.46
39181;BME280;24906;48.262;14.264;2022-07-06T10:51:43;98800.38;;;23.61;49.70
39181;BME280;24906;48.262;14.264;2022-07-06T10:54:38;98799.31;;;23.62;50.31
39181;BME280;24906;48.262;14.264;2022-07-06T10:57:51;98791.09;;;23.69;49.80
39181;BME280;24906;48.262;14.264;2022-07-06T11:00:55;98805.44;;;23.88;51.47
39181;BME280;24906;48.262;14.264;2022-07-06T11:03:49;98796.47;;;23.88;49.20
39181;BME280;24906;48.262;14.264;2022-07-06T11:06:45;98795.09;;;23.97;48.59
39181;BME280;24906;48.262;14.264;2022-07-06T11:09:32;98792.38;;;23.97;47.88
39181;BME280;24906;48.262;14.264;2022-07-06T11:12:26;98785.81;;;24.16;47.98
39181;BME280;24906;48.262;14.264;2022-07-06T11:15:48;98802.09;;;24.40;46.04
39181;BME280;24906;48.262;14.264;2022-07-06T11:18:47;98786.75;;;24.34;42.59
39181;BME280;24906;48.262;14.264;2022-07-06T11:21:51;98784.53;;;24.42;45.24
39181;BME280;24906;48.262;14.264;2022-07-06T11:24:51;98784.66;;;24.48;47.56
39181;BME280;24906;48.262;14.264;2022-07-06T11:27:38;98786.22;;;24.55;45.77
39181;BME280;24906;48.262;14.264;2022-07-06T11:30:32;98789.59;;;24.39;45.47
39181;BME280;24906;48.262;14.264;2022-07-06T11:33:31;98784.06;;;24.34;45.54
39181;BME280;24906;48.262;14.264;2022-07-06T11:36:25;98788.88;;;24.43;47.29
39181;BME280;24906;48.262;14.264;2022-07-06T11:39:32;98787.28;;;24.54;43.41
39181;BME280;24906;48.262;14.264;2022-07-06T11:42:26;98777.81;;;24.45;42.22
39181;BME280;24906;48.262;14.264;2022-07-06T11:45:25;98784.19;;;24.62;43.39
39181;BME280;24906;48.262;14.264;2022-07-06T11:48:19;98784.34;;;24.56;43.65
39181;BME280;24906;48.262;14.264;2022-07-06T11:51:13;98776.16;;;24.79;44.62
39181;BME280;24906;48.262;14.264;2022-07-06T11:54:10;98789.50;;;24.81;44.25
39181;BME280;24906;48.262;14.264;2022-07-06T11:57:07;98783.34;;;24.86;45.08
39181;BME280;24906;48.262;14.264;2022-07-06T11:59:55;98786.78;;;25.21;45.25
39181;BME280;24906;48.262;14.264;2022-07-06T12:03:00;98780.09;;;25.24;44.46
39181;BME280;24906;48.262;14.264;2022-07-06T12:05:57;98775.00;;;25.28;41.15
39181;BME280;24906;48.262;14.264;2022-07-06T12:08:52;98773.31;;;24.86;40.15
39181;BME280;24906;48.262;14.264;2022-07-06T12:11:45;98771.44;;;24.87;40.84
39181;BME280;24906;48.262;14.264;2022-07-06T12:14:41;98768.31;;;24.95;41.47
39181;BME280;24906;48.262;14.264;2022-07-06T12:17:28;98771.00;;;25.07;41.15
39181;BME280;24906;48.262;14.264;2022-07-06T12:20:22;98767.19;;;25.31;43.17
39181;BME280;24906;48.262;14.264;2022-07-06T12:23:11;98767.19;;;25.31;39.37
39181;BME280;24906;48.262;14.264;2022-07-06T12:26:05;98770.28;;;25.52;40.13
39181;BME280;24906;48.262;14.264;2022-07-06T12:29:08;98752.09;;;25.52;38.87
39181;BME280;24906;48.262;14.264;2022-07-06T12:32:03;98746.59;;;25.93;40.19
39181;BME280;24906;48.262;14.264;2022-07-06T12:35:07;98748.94;;;26.06;38.44
39181;BME280;24906;48.262;14.264;2022-07-06T12:38:04;98737.59;;;26.65;38.12
39181;BME280;24906;48.262;14.264;2022-07-06T12:40:58;98745.59;;;27.16;38.96
39181;BME280;24906;48.262;14.264;2022-07-06T12:43:45;98747.94;;;26.85;36.10
39181;BME280;24906;48.262;14.264;2022-07-06T12:46:40;98745.31;;;26.90;36.81
39181;BME280;24906;48.262;14.264;2022-07-06T12:49:27;98743.00;;;27.04;38.05
39181;BME280;24906;48.262;14.264;2022-07-06T12:52:21;98735.97;;;26.86;35.49
39181;BME280;24906;48.262;14.264;2022-07-06T12:55:26;98751.25;;;26.87;37.07
39181;BME280;24906;48.262;14.264;2022-07-06T12:58:19;98744.47;;;26.90;37.71
39181;BME280;24906;48.262;14.264;2022-07-06T13:01:14;98736.22;;;27.07;37.10
39181;BME280;24906;48.262;14.264;2022-07-06T13:04:06;98741.25;;;26.93;36.25
39181;BME280;24906;48.262;14.264;2022-07-06T13:07:01;98741.34;;;26.59;36.74
39181;BME280;24906;48.262;14.264;2022-07-06T13:09:56;98746.66;;;26.15;36.58
39181;BME280;24906;48.262;14.264;2022-07-06T13:12:50;98742.78;;;25.94;36.81
39181;BME280;24906;48.262;14.264;2022-07-06T13:15:41;98742.63;;;25.72;37.08
39181;BME280;24906;48.262;14.264;2022-07-06T13:18:39;98747.88;;;25.45;37.62
39181;BME280;24906;48.262;14.264;2022-07-06T13:21:26;98743.00;;;25.18;38.66
39181;BME280;24906;48.262;14.264;2022-07-06T13:24:20;98750.38;;;25.06;39.29
39181;BME280;24906;48.262;14.264;2022-07-06T13:27:07;98746.63;;;25.35;39.53
39181;BME280;24906;48.262;14.264;2022-07-06T13:30:02;98743.72;;;25.25;40.27
39181;BME280;24906;48.262;14.264;2022-07-06T13:32:56;98747.22;;;25.37;39.44
39181;BME280;24906;48.262;14.264;2022-07-06T13:35:43;98737.59;;;25.47;37.59
39181;BME280;24906;48.262;14.264;2022-07-06T13:38:38;98732.50;;;25.50;37.48
39181;BME280;24906;48.262;14.264;2022-07-06T13:41:46;98747.66;;;25.63;36.15
39181;BME280;24906;48.262;14.264;2022-07-06T13:44:40;98751.84;;;25.54;37.09
39181;BME280;24906;48.262;14.264;2022-07-06T13:47:41;98742.38;;;25.39;38.17
39181;BME280;24906;48.262;14.264;2022-07-06T13:50:34;98729.06;;;25.55;41.85
39181;BME280;24906;48.262;14.264;2022-07-06T13:53:28;98731.25;;;25.58;45.12
39181;BME280;24906;48.262;14.264;2022-07-06T13:56:21;98728.78;;;25.56;43.77
39181;BME280;24906;48.262;14.264;2022-07-06T13:59:15;98728.47;;;25.70;41.68
39181;BME280;24906;48.262;14.264;2022-07-06T14:02:09;98720.75;;;25.78;45.30
39181;BME280;24906;48.262;14.264;2022-07-06T14:05:04;98720.84;;;25.84;42.87
39181;BME280;24906;48.262;14.264;2022-07-06T14:07:57;98716.38;;;25.77;39.59
39181;BME280;24906;48.262;14.264;2022-07-06T14:10:52;98721.59;;;25.96;39.96
39181;BME280;24906;48.262;14.264;2022-07-06T14:13:39;98714.19;;;26.08;37.57
39181;BME280;24906;48.262;14.264;2022-07-06T14:16:34;98704.56;;;26.01;38.77
39181;BME280;24906;48.262;14.264;2022-07-06T14:19:22;98705.72;;;26.05;37.23
39181;BME280;24906;48.262;14.264;2022-07-06T14:22:16;98704.03;;;26.21;38.74
39181;BME280;24906;48.262;14.264;2022-07-06T14:25:10;98701.50;;;25.97;37.08
39181;BME280;24906;48.262;14.264;2022-07-06T14:28:04;98702.13;;;26.04;38.13
39181;BME280;24906;48.262;14.264;2022-07-06T14:30:52;98693.91;;;26.16;37.62
39181;BME280;24906;48.262;14.264;2022-07-06T14:33:46;98692.38;;;26.25;36.85
39181;BME280;24906;48.262;14.264;2022-07-06T14:36:40;98688.13;;;26.12;35.85
39181;BME280;24906;48.262;14.264;2022-07-06T14:39:27;98691.91;;;26.11;35.54
39181;BME280;24906;48.262;14.264;2022-07-06T14:42:21;98701.00;;;26.00;34.68
39181;BME280;24906;48.262;14.264;2022-07-06T14:45:15;98688.47;;;25.99;34.99
39181;BME280;24906;48.262;14.264;2022-07-06T14:48:02;98689.28;;;26.16;36.33
39181;BME280;24906;48.262;14.264;2022-07-06T14:50:56;98689.06;;;26.01;36.56
39181;BME280;24906;48.262;14.264;2022-07-06T14:53:51;98700.00;;;26.06;35.48
39181;BME280;24906;48.262;14.264;2022-07-06T14:56:38;98697.00;;;25.91;35.38
39181;BME280;24906;48.262;14.264;2022-07-06T14:59:32;98689.47;;;25.93;35.71
39181;BME280;24906;48.262;14.264;2022-07-06T15:02:26;98682.69;;;26.12;37.79
39181;BME280;24906;48.262;14.264;2022-07-06T15:05:13;98690.00;;;26.12;36.71
39181;BME280;24906;48.262;14.264;2022-07-06T15:08:07;98688.63;;;26.09;36.17